Snav Lazio — IBUH — position and weather

sailwx.info

Track history (hours):
 
Tides and Currents Weather Stations Pressure Air Temp Water Temp Dewpoint Dewpoint Depression Visibility Wind Speed Wind Dir Waves Ship Positions

Snav Lazio

Last reported at 2014-Sep-20 01:33 UTC. Time now 2014-Sep-20 01:56 UTC.
Position N 38°54' E 013°38'.

Length 162 m; draft 6 m.

Type: Passenger vessel. MMSI: 247163100.

Date/timePositionNaut miles runAvg speedWind from/ knotsBaromVisibWave heightAir tempDewpointWater temp
2014-Sep-20 01:33N 38°54' E 013°38'1818.3
2014-Sep-20 00:34N 39°12' E 013°43'1818.3
2014-Sep-19 23:34N 39°30' E 013°48'1818.3
2014-Sep-19 22:33N 39°47' E 013°53'1818.2
2014-Sep-19 21:33N 40°05' E 013°58'49 2.1
2014-Sep-18 22:34N 39°17' E 013°45'1817.2
2014-Sep-18 21:31N 38°60' E 013°40'1617.0
2014-Sep-18 20:33N 38°44' E 013°36'1717.2
2014-Sep-18 19:33N 38°27' E 013°31'1717.1
2014-Sep-18 18:33N 38°10' E 013°27'5 4.5
2014-Sep-18 17:33N 38°08' E 013°22'0 0.0
2014-Sep-18 16:33N 38°08' E 013°22'0 0.0
2014-Sep-18 15:33N 38°08' E 013°22'0 0.0
2014-Sep-18 14:30N 38°08' E 013°22'0 0.0
2014-Sep-18 13:33N 38°08' E 013°22'0 0.0
2014-Sep-18 12:33N 38°08' E 013°22'0 0.0
2014-Sep-18 11:33N 38°08' E 013°22'0 0.0
2014-Sep-18 10:33N 38°08' E 013°22'0 0.0
2014-Sep-18 09:33N 38°08' E 013°22'0 0.0
2014-Sep-18 08:33N 38°08' E 013°22'0 0.0
2014-Sep-18 07:34N 38°08' E 013°22'0 0.0
2014-Sep-18 06:33N 38°08' E 013°22'0 0.0
2014-Sep-18 05:33N 38°08' E 013°22'0 0.0
2014-Sep-18 04:33N 38°08' E 013°22'6 5.6
2014-Sep-18 03:34N 38°13' E 013°25'1818.5
2014-Sep-18 02:33N 38°31' E 013°31'1918.6
2014-Sep-18 01:33N 38°49' E 013°37'1818.6
2014-Sep-18 00:34N 39°07' E 013°42'1918.5
2014-Sep-17 23:33N 39°25' E 013°47'1918.5
2014-Sep-17 22:30N 39°44' E 013°52'1818.4
2014-Sep-17 21:33N 40°01' E 013°57'1716.9
2014-Sep-17 20:34N 40°18' E 014°01'1716.8
2014-Sep-17 19:33N 40°34' E 014°06'1716.8
2014-Sep-17 18:33N 40°49' E 014°17'148 6.5
2014-Sep-16 19:34N 38°25' E 013°31'1716.9
2014-Sep-16 18:34N 38°09' E 013°25'3 2.6
2014-Sep-16 17:31N 38°08' E 013°22'0 0.0
2014-Sep-16 16:28N 38°08' E 013°22'0 0.0
2014-Sep-16 15:31N 38°08' E 013°22'0 0.0
2014-Sep-16 14:31N 38°08' E 013°22'0 0.0
2014-Sep-16 13:22N 38°08' E 013°22'0 0.0
2014-Sep-16 12:31N 38°08' E 013°22'0 0.0
2014-Sep-16 11:28N 38°08' E 013°22'0 0.0
2014-Sep-16 10:31N 38°08' E 013°22'0 0.0
2014-Sep-16 09:28N 38°08' E 013°22'0 0.0
2014-Sep-16 08:31N 38°08' E 013°22'0 0.0
2014-Sep-16 07:31N 38°08' E 013°22'0 0.0
2014-Sep-16 06:31N 38°08' E 013°22'0 0.0
2014-Sep-16 05:31N 38°08' E 013°22'0 0.0
2014-Sep-16 04:29N 38°08' E 013°22'6 6.2
2014-Sep-16 03:33N 38°13' E 013°25'1818.1
2014-Sep-16 02:33N 38°31' E 013°31'1818.1
2014-Sep-16 01:33N 38°48' E 013°37'2418.2
2014-Sep-16 00:15N 39°11' E 013°45'1318.2
2014-Sep-15 23:33N 39°24' E 013°47'1918.4
2014-Sep-15 22:30N 39°42' E 013°53'3417.3
2014-Sep-15 20:31N 40°16' E 014°02'1616.7
2014-Sep-15 19:33N 40°32' E 014°05'1717.1
2014-Sep-15 18:33N 40°47' E 014°16'3 0.2
2014-Sep-15 03:34N 40°45' E 014°14'1817.9
2014-Sep-15 02:33N 40°28' E 014°05'11718.3
2014-Sep-14 20:11N 38°34' E 013°32'1117.2
2014-Sep-14 19:33N 38°23' E 013°30'1616.4
2014-Sep-14 18:33N 38°08' E 013°24'2 1.6
2014-Sep-14 17:31N 38°08' E 013°22'0 0.0
2014-Sep-14 16:31N 38°08' E 013°22'0 0.0
2014-Sep-14 15:31N 38°08' E 013°22'0 0.0
2014-Sep-14 14:31N 38°08' E 013°22'0 0.0
2014-Sep-14 13:31N 38°08' E 013°22'0 0.0
2014-Sep-14 12:31N 38°08' E 013°22'0 0.0
2014-Sep-14 11:34N 38°08' E 013°22'0 0.0
2014-Sep-14 10:31N 38°08' E 013°22'0 0.0
2014-Sep-14 09:31N 38°08' E 013°22'0 0.0
2014-Sep-14 08:31N 38°08' E 013°22'0 0.0
2014-Sep-14 07:31N 38°08' E 013°22'0 0.0
2014-Sep-14 06:31N 38°08' E 013°22'0 0.0
2014-Sep-14 05:28N 38°08' E 013°22'0 0.0
2014-Sep-14 04:31N 38°08' E 013°22'3 3.6
2014-Sep-14 03:33N 38°10' E 013°25'1716.9
2014-Sep-14 02:33N 38°27' E 013°30'1818.2
2014-Sep-14 01:32N 38°45' E 013°35'9118.3
2014-Sep-13 20:33N 40°14' E 014°01'1717.0
2014-Sep-13 19:33N 40°30' E 014°05'1717.0
2014-Sep-13 18:33N 40°46' E 014°15'3 0.2
2014-Sep-13 03:33N 40°44' E 014°13'1818.3
2014-Sep-13 02:33N 40°26' E 014°05'2517.0
2014-Sep-13 01:04N 40°02' E 013°58'8317.5
2014-Sep-12 20:17N 38°40' E 013°36'1317.4
2014-Sep-12 19:33N 38°27' E 013°33'1716.8
2014-Sep-12 18:34N 38°11' E 013°27'5 5.3
2014-Sep-12 17:33N 38°08' E 013°22'0 0.0
2014-Sep-12 16:33N 38°08' E 013°22'0 0.0
2014-Sep-12 15:33N 38°08' E 013°22'0 0.0
2014-Sep-12 14:33N 38°08' E 013°22'0 0.0
2014-Sep-12 13:33N 38°08' E 013°22'0 0.0
2014-Sep-12 12:33N 38°08' E 013°22'0 0.0
2014-Sep-12 11:33N 38°08' E 013°22'0 0.0
2014-Sep-12 10:33N 38°08' E 013°22'0 0.0
2014-Sep-12 09:33N 38°08' E 013°22'0 0.0
2014-Sep-12 08:30N 38°08' E 013°22'0 0.0
2014-Sep-12 07:30N 38°08' E 013°22'0 0.0
2014-Sep-12 06:33N 38°08' E 013°22'0 0.0
2014-Sep-12 05:33N 38°08' E 013°22'0 0.0
2014-Sep-12 04:33N 38°08' E 013°22'9 8.7
2014-Sep-12 03:33N 38°16' E 013°27'1817.9
2014-Sep-12 02:33N 38°33' E 013°32'1817.9
2014-Sep-12 01:33N 38°51' E 013°37'2417.9
2014-Sep-12 00:12N 39°14' E 013°44'1118.0
2014-Sep-11 23:33N 39°26' E 013°47'1818.3
2014-Sep-11 22:33N 39°43' E 013°52'1717.4
2014-Sep-11 21:33N 40°00' E 013°57'1717.0
2014-Sep-11 20:32N 40°18' E 014°01'1717.1
2014-Sep-11 19:33N 40°34' E 014°06'1716.7
2014-Sep-11 18:33N 40°49' E 014°16'166 6.3
2014-Sep-10 16:03N 38°08' E 013°22'0 0.0
2014-Sep-10 15:33N 38°08' E 013°22'0 0.0
2014-Sep-10 14:33N 38°08' E 013°22'0 0.0
2014-Sep-10 13:33N 38°08' E 013°22'0 0.0
2014-Sep-10 12:33N 38°08' E 013°22'  
Track history (hours):
 
Tides and Currents Weather Stations Pressure Air Temp Water Temp Dewpoint Dewpoint Depression Visibility Wind Speed Wind Dir Waves Ship Positions

Snav Lazio

Last reported at 2014-Sep-20 01:33 UTC. Time now 2014-Sep-20 01:56 UTC.
Position N 38°54' E 013°38'.

Length 162 m; draft 6 m.

Type: Passenger vessel. MMSI: 247163100.

Date/timePositionNaut miles runAvg speedWind from/ knotsBaromVisibWave heightAir tempDewpointWater temp
2014-Sep-20 01:33N 38°54' E 013°38'1818.3
2014-Sep-20 00:34N 39°12' E 013°43'1818.3
2014-Sep-19 23:34N 39°30' E 013°48'1818.3
2014-Sep-19 22:33N 39°47' E 013°53'1818.2
2014-Sep-19 21:33N 40°05' E 013°58'49 2.1
2014-Sep-18 22:34N 39°17' E 013°45'1817.2
2014-Sep-18 21:31N 38°60' E 013°40'1617.0
2014-Sep-18 20:33N 38°44' E 013°36'1717.2
2014-Sep-18 19:33N 38°27' E 013°31'1717.1
2014-Sep-18 18:33N 38°10' E 013°27'5 4.5
2014-Sep-18 17:33N 38°08' E 013°22'0 0.0
2014-Sep-18 16:33N 38°08' E 013°22'0 0.0
2014-Sep-18 15:33N 38°08' E 013°22'0 0.0
2014-Sep-18 14:30N 38°08' E 013°22'0 0.0
2014-Sep-18 13:33N 38°08' E 013°22'0 0.0
2014-Sep-18 12:33N 38°08' E 013°22'0 0.0
2014-Sep-18 11:33N 38°08' E 013°22'0 0.0
2014-Sep-18 10:33N 38°08' E 013°22'0 0.0
2014-Sep-18 09:33N 38°08' E 013°22'0 0.0
2014-Sep-18 08:33N 38°08' E 013°22'0 0.0
2014-Sep-18 07:34N 38°08' E 013°22'0 0.0
2014-Sep-18 06:33N 38°08' E 013°22'0 0.0
2014-Sep-18 05:33N 38°08' E 013°22'0 0.0
2014-Sep-18 04:33N 38°08' E 013°22'6 5.6
2014-Sep-18 03:34N 38°13' E 013°25'1818.5
2014-Sep-18 02:33N 38°31' E 013°31'1918.6
2014-Sep-18 01:33N 38°49' E 013°37'1818.6
2014-Sep-18 00:34N 39°07' E 013°42'1918.5
2014-Sep-17 23:33N 39°25' E 013°47'1918.5
2014-Sep-17 22:30N 39°44' E 013°52'1818.4
2014-Sep-17 21:33N 40°01' E 013°57'1716.9
2014-Sep-17 20:34N 40°18' E 014°01'1716.8
2014-Sep-17 19:33N 40°34' E 014°06'1716.8
2014-Sep-17 18:33N 40°49' E 014°17'148 6.5
2014-Sep-16 19:34N 38°25' E 013°31'1716.9
2014-Sep-16 18:34N 38°09' E 013°25'3 2.6
2014-Sep-16 17:31N 38°08' E 013°22'0 0.0
2014-Sep-16 16:28N 38°08' E 013°22'0 0.0
2014-Sep-16 15:31N 38°08' E 013°22'0 0.0
2014-Sep-16 14:31N 38°08' E 013°22'0 0.0
2014-Sep-16 13:22N 38°08' E 013°22'0 0.0
2014-Sep-16 12:31N 38°08' E 013°22'0 0.0
2014-Sep-16 11:28N 38°08' E 013°22'0 0.0
2014-Sep-16 10:31N 38°08' E 013°22'0 0.0
2014-Sep-16 09:28N 38°08' E 013°22'0 0.0
2014-Sep-16 08:31N 38°08' E 013°22'0 0.0
2014-Sep-16 07:31N 38°08' E 013°22'0 0.0
2014-Sep-16 06:31N 38°08' E 013°22'0 0.0
2014-Sep-16 05:31N 38°08' E 013°22'0 0.0
2014-Sep-16 04:29N 38°08' E 013°22'6 6.2
2014-Sep-16 03:33N 38°13' E 013°25'1818.1
2014-Sep-16 02:33N 38°31' E 013°31'1818.1
2014-Sep-16 01:33N 38°48' E 013°37'2418.2
2014-Sep-16 00:15N 39°11' E 013°45'1318.2
2014-Sep-15 23:33N 39°24' E 013°47'1918.4
2014-Sep-15 22:30N 39°42' E 013°53'3417.3
2014-Sep-15 20:31N 40°16' E 014°02'1616.7
2014-Sep-15 19:33N 40°32' E 014°05'1717.1
2014-Sep-15 18:33N 40°47' E 014°16'3 0.2
2014-Sep-15 03:34N 40°45' E 014°14'1817.9
2014-Sep-15 02:33N 40°28' E 014°05'11718.3
2014-Sep-14 20:11N 38°34' E 013°32'1117.2
2014-Sep-14 19:33N 38°23' E 013°30'1616.4
2014-Sep-14 18:33N 38°08' E 013°24'2 1.6
2014-Sep-14 17:31N 38°08' E 013°22'0 0.0
2014-Sep-14 16:31N 38°08' E 013°22'0 0.0
2014-Sep-14 15:31N 38°08' E 013°22'0 0.0
2014-Sep-14 14:31N 38°08' E 013°22'0 0.0
2014-Sep-14 13:31N 38°08' E 013°22'0 0.0
2014-Sep-14 12:31N 38°08' E 013°22'0 0.0
2014-Sep-14 11:34N 38°08' E 013°22'0 0.0
2014-Sep-14 10:31N 38°08' E 013°22'0 0.0
2014-Sep-14 09:31N 38°08' E 013°22'0 0.0
2014-Sep-14 08:31N 38°08' E 013°22'0 0.0
2014-Sep-14 07:31N 38°08' E 013°22'0 0.0
2014-Sep-14 06:31N 38°08' E 013°22'0 0.0
2014-Sep-14 05:28N 38°08' E 013°22'0 0.0
2014-Sep-14 04:31N 38°08' E 013°22'3 3.6
2014-Sep-14 03:33N 38°10' E 013°25'1716.9
2014-Sep-14 02:33N 38°27' E 013°30'1818.2
2014-Sep-14 01:32N 38°45' E 013°35'9118.3
2014-Sep-13 20:33N 40°14' E 014°01'1717.0
2014-Sep-13 19:33N 40°30' E 014°05'1717.0
2014-Sep-13 18:33N 40°46' E 014°15'3 0.2
2014-Sep-13 03:33N 40°44' E 014°13'1818.3
2014-Sep-13 02:33N 40°26' E 014°05'2517.0
2014-Sep-13 01:04N 40°02' E 013°58'8317.5
2014-Sep-12 20:17N 38°40' E 013°36'1317.4
2014-Sep-12 19:33N 38°27' E 013°33'1716.8
2014-Sep-12 18:34N 38°11' E 013°27'5 5.3
2014-Sep-12 17:33N 38°08' E 013°22'0 0.0
2014-Sep-12 16:33N 38°08' E 013°22'0 0.0
2014-Sep-12 15:33N 38°08' E 013°22'0 0.0
2014-Sep-12 14:33N 38°08' E 013°22'0 0.0
2014-Sep-12 13:33N 38°08' E 013°22'0 0.0
2014-Sep-12 12:33N 38°08' E 013°22'0 0.0
2014-Sep-12 11:33N 38°08' E 013°22'0 0.0
2014-Sep-12 10:33N 38°08' E 013°22'0 0.0
2014-Sep-12 09:33N 38°08' E 013°22'0 0.0
2014-Sep-12 08:30N 38°08' E 013°22'0 0.0
2014-Sep-12 07:30N 38°08' E 013°22'0 0.0
2014-Sep-12 06:33N 38°08' E 013°22'0 0.0
2014-Sep-12 05:33N 38°08' E 013°22'0 0.0
2014-Sep-12 04:33N 38°08' E 013°22'9 8.7
2014-Sep-12 03:33N 38°16' E 013°27'1817.9
2014-Sep-12 02:33N 38°33' E 013°32'1817.9
2014-Sep-12 01:33N 38°51' E 013°37'2417.9
2014-Sep-12 00:12N 39°14' E 013°44'1118.0
2014-Sep-11 23:33N 39°26' E 013°47'1818.3
2014-Sep-11 22:33N 39°43' E 013°52'1717.4
2014-Sep-11 21:33N 40°00' E 013°57'1717.0
2014-Sep-11 20:32N 40°18' E 014°01'1717.1
2014-Sep-11 19:33N 40°34' E 014°06'1716.7
2014-Sep-11 18:33N 40°49' E 014°16'166 6.3
2014-Sep-10 16:03N 38°08' E 013°22'0 0.0
2014-Sep-10 15:33N 38°08' E 013°22'0 0.0
2014-Sep-10 14:33N 38°08' E 013°22'0 0.0
2014-Sep-10 13:33N 38°08' E 013°22'0 0.0
2014-Sep-10 12:33N 38°08' E 013°22'  

Dump ship's entire track history